createdAt,value
2023-02-28T00:00:21.569Z,100124.38
2023-02-28T00:03:27.876Z,100127.14
2023-02-28T00:06:32.507Z,100127.85
2023-02-28T00:09:38.688Z,100126.96
2023-02-28T00:12:45.196Z,100128.02
2023-02-28T00:16:00.643Z,100129.55
2023-02-28T00:19:06.988Z,100131.42
2023-02-28T00:22:13.329Z,100133.64
2023-02-28T00:25:19.285Z,100133.67
2023-02-28T00:28:24.262Z,100135.47
2023-02-28T00:31:30.759Z,100135.36
2023-02-28T00:34:38.716Z,100134.87
2023-02-28T00:37:45.474Z,100133.95
2023-02-28T00:40:51.745Z,100132.86
2023-02-28T00:43:57.983Z,100134.00
2023-02-28T00:47:02.637Z,100138.52
2023-02-28T00:50:11.475Z,100143.02
2023-02-28T00:53:17.741Z,100148.77
2023-02-28T00:56:23.940Z,100146.83
2023-02-28T00:59:30.240Z,100145.84
2023-02-28T01:02:34.844Z,100143.89
2023-02-28T01:05:42.455Z,100144.60
2023-02-28T01:08:48.757Z,100152.04
2023-02-28T01:11:53.266Z,100149.16
2023-02-28T01:14:59.541Z,100146.66
2023-02-28T01:18:04.015Z,100146.86
2023-02-28T01:21:11.854Z,100146.55
2023-02-28T01:24:18.198Z,100144.33
2023-02-28T01:27:22.720Z,100144.71
2023-02-28T01:30:29.019Z,100146.18
2023-02-28T01:33:33.972Z,100147.82
2023-02-28T01:36:40.237Z,100147.42
2023-02-28T01:39:44.830Z,100144.32
2023-02-28T01:42:51.070Z,100142.79
2023-02-28T01:45:56.200Z,100140.61
2023-02-28T01:49:07.748Z,100136.23
2023-02-28T01:52:19.116Z,100134.08
2023-02-28T01:55:29.774Z,100128.71
2023-02-28T01:58:36.587Z,100126.50
2023-02-28T02:01:42.914Z,100126.65
2023-02-28T02:04:52.489Z,100128.61
2023-02-28T02:08:03.669Z,100132.02
2023-02-28T02:11:13.158Z,100132.89
2023-02-28T02:14:35.291Z,100131.97
2023-02-28T02:17:46.898Z,100127.88
2023-02-28T02:21:37.548Z,100121.13
2023-02-28T02:25:05.521Z,100120.70
2023-02-28T02:28:38.755Z,100119.91
2023-02-28T02:32:19.934Z,100121.46
2023-02-28T02:35:29.894Z,100119.46
2023-02-28T02:38:41.852Z,100116.02
2023-02-28T02:41:53.483Z,100105.67
2023-02-28T02:45:07.285Z,100105.26
2023-02-28T02:48:18.276Z,100106.39
2023-02-28T02:51:27.230Z,100101.40
2023-02-28T02:54:37.740Z,100099.90
2023-02-28T02:57:48.716Z,100101.88
2023-02-28T03:00:59.216Z,100106.42
2023-02-28T03:04:10.048Z,100107.16
2023-02-28T03:07:16.575Z,100111.05
2023-02-28T03:10:39.091Z,100112.59
2023-02-28T03:14:01.649Z,100111.40
2023-02-28T03:17:24.030Z,100114.50
2023-02-28T03:20:42.229Z,100112.27
2023-02-28T03:23:54.961Z,100115.89
2023-02-28T03:27:06.009Z,100119.85
2023-02-28T03:30:18.544Z,100118.35
2023-02-28T03:33:30.661Z,100122.77
2023-02-28T03:36:45.074Z,100129.15
2023-02-28T03:39:56.449Z,100130.61
2023-02-28T03:43:05.933Z,100132.45
2023-02-28T03:46:15.777Z,100138.84
2023-02-28T03:49:25.224Z,100141.86
2023-02-28T03:52:34.618Z,100145.34
2023-02-28T03:55:45.014Z,100147.42
2023-02-28T03:58:57.756Z,100149.73
2023-02-28T04:02:04.400Z,100148.98
2023-02-28T04:05:11.911Z,100148.84
2023-02-28T04:08:18.084Z,100147.89
2023-02-28T04:11:30.388Z,100151.74
2023-02-28T04:14:36.899Z,100152.11
2023-02-28T04:17:41.387Z,100156.66
2023-02-28T04:20:48.009Z,100153.00
2023-02-28T04:23:54.365Z,100154.23
2023-02-28T04:26:59.828Z,100156.11
2023-02-28T04:30:07.010Z,100158.80
2023-02-28T04:33:13.237Z,100161.40
2023-02-28T04:36:18.802Z,100161.19
2023-02-28T04:39:25.966Z,100161.17
2023-02-28T04:42:36.768Z,100163.98
2023-02-28T04:45:43.083Z,100167.77
2023-02-28T04:48:49.405Z,100167.96
2023-02-28T04:51:56.781Z,100169.40
2023-02-28T04:55:03.037Z,100164.30
2023-02-28T04:58:09.770Z,100162.28
2023-02-28T05:01:25.865Z,100160.95
2023-02-28T05:04:35.348Z,100164.42
2023-02-28T05:07:41.684Z,100166.23
2023-02-28T05:10:48.219Z,100165.77
2023-02-28T05:13:55.191Z,100168.70
2023-02-28T05:17:01.382Z,100170.33
2023-02-28T05:20:15.715Z,100176.52
2023-02-28T05:23:24.895Z,100175.62
2023-02-28T05:26:31.505Z,100182.13
2023-02-28T05:29:44.376Z,100186.23
2023-02-28T05:32:53.819Z,100186.06
2023-02-28T05:36:00.195Z,100190.42
2023-02-28T05:39:07.241Z,100195.85
2023-02-28T05:42:13.491Z,100199.33
2023-02-28T05:45:18.265Z,100202.95
2023-02-28T05:48:24.567Z,100207.67
2023-02-28T05:51:29.329Z,100214.85
2023-02-28T05:54:35.979Z,100220.12
2023-02-28T05:57:42.228Z,100222.88
2023-02-28T06:00:46.873Z,100227.30
2023-02-28T06:03:53.345Z,100227.80
2023-02-28T06:06:59.757Z,100234.29
2023-02-28T06:10:06.238Z,100234.89
2023-02-28T06:13:12.745Z,100243.88
2023-02-28T06:16:19.022Z,100245.38
2023-02-28T06:19:23.893Z,100244.79
2023-02-28T06:22:30.242Z,100248.66
2023-02-28T06:25:34.833Z,100248.33
2023-02-28T06:28:41.233Z,100249.13
2023-02-28T06:31:48.032Z,100252.13
2023-02-28T06:34:55.130Z,100254.46
2023-02-28T06:38:01.322Z,100251.97
2023-02-28T06:41:08.246Z,100254.80
2023-02-28T06:44:18.493Z,100258.28
2023-02-28T06:47:24.838Z,100254.94
2023-02-28T06:50:30.714Z,100256.91
2023-02-28T06:53:35.349Z,100260.40
2023-02-28T06:56:41.972Z,100261.45
2023-02-28T06:59:48.304Z,100263.11
2023-02-28T07:02:55.035Z,100262.58
2023-02-28T07:06:01.319Z,100263.60
2023-02-28T07:09:06.382Z,100262.54
2023-02-28T07:12:12.755Z,100264.83
2023-02-28T07:15:17.208Z,100263.12
2023-02-28T07:18:23.416Z,100266.77
2023-02-28T07:21:30.351Z,100266.02
2023-02-28T07:24:36.718Z,100268.67
2023-02-28T07:27:42.893Z,100269.64
2023-02-28T07:30:49.369Z,100271.73
2023-02-28T07:33:57.483Z,100274.59
2023-02-28T07:37:04.895Z,100270.58
2023-02-28T07:40:15.314Z,100268.98
2023-02-28T07:43:21.531Z,100268.48
2023-02-28T07:46:30.658Z,100271.64
2023-02-28T07:49:37.374Z,100269.23
2023-02-28T07:52:43.896Z,100274.52
2023-02-28T07:55:50.350Z,100270.19
2023-02-28T07:58:56.722Z,100268.36
2023-02-28T08:02:01.453Z,100268.65
2023-02-28T08:05:09.371Z,100264.73
2023-02-28T08:08:15.811Z,100263.41
2023-02-28T08:11:22.023Z,100265.06
2023-02-28T08:14:28.382Z,100262.96
2023-02-28T08:17:35.346Z,100263.53
2023-02-28T08:20:41.763Z,100260.56
2023-02-28T08:23:46.682Z,100265.23
2023-02-28T08:26:52.957Z,100271.78
2023-02-28T08:29:57.601Z,100269.30
2023-02-28T08:33:04.108Z,100270.31
2023-02-28T08:36:11.502Z,100272.01
2023-02-28T08:39:17.667Z,100277.78
2023-02-28T08:42:25.146Z,100277.91
2023-02-28T08:45:31.654Z,100269.91
2023-02-28T08:48:39.711Z,100272.43
2023-02-28T08:51:46.054Z,100271.77
2023-02-28T08:54:50.864Z,100272.17
2023-02-28T08:57:57.204Z,100271.85
2023-02-28T09:01:01.810Z,100269.48
2023-02-28T09:04:09.704Z,100267.34
2023-02-28T09:07:16.054Z,100268.11
2023-02-28T09:10:20.646Z,100266.89
2023-02-28T09:13:27.245Z,100260.65
2023-02-28T09:16:34.811Z,100261.52
2023-02-28T09:19:41.359Z,100263.52
2023-02-28T09:22:45.871Z,100261.22
2023-02-28T09:25:54.265Z,100257.48
2023-02-28T09:29:01.113Z,100256.48
2023-02-28T09:32:08.051Z,100254.69
2023-02-28T09:35:17.464Z,100254.70
2023-02-28T09:38:23.733Z,100250.66
2023-02-28T09:41:31.596Z,100252.33
2023-02-28T09:44:43.791Z,100254.77
2023-02-28T09:47:53.690Z,100253.95
2023-02-28T09:51:05.237Z,100249.70
2023-02-28T09:54:20.037Z,100250.00
2023-02-28T09:57:34.348Z,100250.80
2023-02-28T10:00:44.309Z,100252.33
2023-02-28T10:03:59.428Z,100250.72
2023-02-28T10:07:18.698Z,100246.92
2023-02-28T10:10:29.256Z,100244.13
2023-02-28T10:13:40.559Z,100244.38
2023-02-28T10:16:53.023Z,100243.39
2023-02-28T10:20:09.072Z,100242.97
2023-02-28T10:23:21.634Z,100240.97
2023-02-28T10:26:31.401Z,100241.36
2023-02-28T10:29:38.108Z,100240.02
2023-02-28T10:32:44.684Z,100233.91
2023-02-28T10:35:51.283Z,100229.09
2023-02-28T10:38:57.515Z,100226.24
2023-02-28T10:42:03.753Z,100218.88
2023-02-28T10:45:17.856Z,100216.25
2023-02-28T10:48:35.968Z,100218.94
2023-02-28T10:51:43.462Z,100212.52
2023-02-28T10:54:49.727Z,100208.35
2023-02-28T10:57:56.410Z,100207.61
2023-02-28T11:01:03.199Z,100198.02
2023-02-28T11:04:22.973Z,100197.54
2023-02-28T11:07:37.340Z,100199.80
2023-02-28T11:10:51.200Z,100195.64
2023-02-28T11:14:00.802Z,100192.91
2023-02-28T11:17:17.111Z,100193.11
2023-02-28T11:20:25.586Z,100189.39
2023-02-28T11:23:37.765Z,100187.73
2023-02-28T11:26:46.960Z,100186.30
2023-02-28T11:29:53.474Z,100179.38
2023-02-28T11:32:59.975Z,100180.69
2023-02-28T11:36:15.090Z,100178.05
2023-02-28T11:39:21.845Z,100176.02
2023-02-28T11:43:00.888Z,100171.48
2023-02-28T11:46:23.152Z,100170.85
2023-02-28T11:49:38.784Z,100165.37
2023-02-28T11:52:53.966Z,100166.11
2023-02-28T11:56:06.408Z,100163.08
2023-02-28T11:59:32.019Z,100163.77
2023-02-28T12:02:48.310Z,100162.89
2023-02-28T12:06:03.389Z,100158.97
2023-02-28T12:09:23.355Z,100156.71
2023-02-28T12:12:41.131Z,100167.41
2023-02-28T12:16:11.284Z,100162.10
2023-02-28T12:19:27.078Z,100157.56
2023-02-28T12:22:38.314Z,100153.64
2023-02-28T12:26:01.342Z,100156.34
2023-02-28T12:29:15.116Z,100159.11
2023-02-28T12:32:24.759Z,100158.41
2023-02-28T12:35:39.257Z,100156.18
2023-02-28T12:38:50.002Z,100151.14
2023-02-28T12:42:01.423Z,100149.91
2023-02-28T12:45:14.123Z,100150.95
2023-02-28T12:48:28.289Z,100149.70
2023-02-28T12:51:37.293Z,100147.40
2023-02-28T12:54:53.076Z,100144.35
2023-02-28T12:58:04.072Z,100145.59
2023-02-28T13:01:38.056Z,100144.02
2023-02-28T13:05:03.696Z,100142.34
2023-02-28T13:08:32.007Z,100136.16
2023-02-28T13:11:44.917Z,100134.91
2023-02-28T13:14:51.989Z,100134.99
2023-02-28T13:18:00.498Z,100131.08
2023-02-28T13:21:08.406Z,100123.61
2023-02-28T13:24:35.856Z,100125.35
2023-02-28T13:27:43.845Z,100118.84
2023-02-28T13:31:10.175Z,100113.88
2023-02-28T13:34:20.380Z,100111.20
2023-02-28T13:37:44.463Z,100105.09
2023-02-28T13:40:50.745Z,100106.78
2023-02-28T13:44:14.235Z,100105.21
2023-02-28T13:47:30.804Z,100103.58
2023-02-28T13:50:39.728Z,100104.00
2023-02-28T13:54:06.447Z,100093.39
2023-02-28T13:57:29.813Z,100091.23
2023-02-28T14:00:55.561Z,100088.80
2023-02-28T14:04:21.949Z,100086.68
2023-02-28T14:07:36.242Z,100084.09
2023-02-28T14:10:47.717Z,100081.09
2023-02-28T14:13:54.069Z,100074.23
2023-02-28T14:17:01.701Z,100072.47
2023-02-28T14:20:15.965Z,100071.90
2023-02-28T14:23:36.974Z,100078.64
2023-02-28T14:26:59.296Z,100076.39
2023-02-28T14:30:23.320Z,100078.38
2023-02-28T14:33:40.441Z,100073.66
2023-02-28T14:36:47.272Z,100070.08
2023-02-28T14:39:53.797Z,100068.91
2023-02-28T14:43:01.937Z,100069.20
2023-02-28T14:46:09.967Z,100075.58
2023-02-28T14:49:23.114Z,100076.60
2023-02-28T14:52:32.864Z,100076.91
2023-02-28T14:55:39.571Z,100076.98
2023-02-28T14:58:56.032Z,100074.59
2023-02-28T15:02:25.928Z,100074.19
2023-02-28T15:05:34.388Z,100073.60
2023-02-28T15:08:40.917Z,100075.63
2023-02-28T15:11:52.104Z,100078.34
2023-02-28T15:14:58.431Z,100075.42
2023-02-28T15:18:05.908Z,100076.05
2023-02-28T15:21:17.881Z,100076.95
2023-02-28T15:24:39.219Z,100080.23
2023-02-28T15:27:49.354Z,100080.88
2023-02-28T15:30:58.395Z,100077.86
2023-02-28T15:34:08.967Z,100074.06
2023-02-28T15:37:42.567Z,100076.31
2023-02-28T15:40:54.888Z,100078.92
2023-02-28T15:44:27.843Z,100080.82
2023-02-28T15:47:35.010Z,100081.22
2023-02-28T15:50:42.045Z,100080.94
2023-02-28T15:53:54.375Z,100083.33
2023-02-28T15:57:03.633Z,100080.05
2023-02-28T16:00:16.340Z,100084.55
2023-02-28T16:03:37.444Z,100082.89
2023-02-28T16:06:46.099Z,100084.30
2023-02-28T16:09:52.332Z,100091.05
2023-02-28T16:12:59.592Z,100094.95
2023-02-28T16:16:06.294Z,100096.77
2023-02-28T16:19:13.038Z,100094.96
2023-02-28T16:22:19.285Z,100098.91
2023-02-28T16:25:31.362Z,100100.08
2023-02-28T16:28:40.803Z,100100.81
2023-02-28T16:31:47.008Z,100108.02
2023-02-28T16:34:53.273Z,100109.21
2023-02-28T16:37:57.842Z,100110.69
2023-02-28T16:41:04.086Z,100112.26
2023-02-28T16:44:15.562Z,100117.77
2023-02-28T16:47:21.842Z,100120.38
2023-02-28T16:50:27.084Z,100124.48
2023-02-28T16:53:33.319Z,100129.73
2023-02-28T16:56:41.648Z,100133.89
2023-02-28T16:59:48.037Z,100135.52
2023-02-28T17:02:53.170Z,100135.83
2023-02-28T17:05:59.538Z,100138.50
2023-02-28T17:09:04.094Z,100141.49
2023-02-28T17:12:12.135Z,100139.23
2023-02-28T17:15:20.448Z,100140.37
2023-02-28T17:18:27.674Z,100136.38
2023-02-28T17:21:35.169Z,100137.52
2023-02-28T17:24:41.448Z,100137.63
2023-02-28T17:27:46.405Z,100136.73
2023-02-28T17:30:53.027Z,100134.29
2023-02-28T17:33:59.272Z,100132.93
2023-02-28T17:37:05.555Z,100135.42
2023-02-28T17:40:15.115Z,100135.73
2023-02-28T17:43:21.459Z,100134.41
2023-02-28T17:46:26.768Z,100131.74
2023-02-28T17:49:34.210Z,100132.66
2023-02-28T17:52:40.499Z,100132.60
2023-02-28T17:55:45.037Z,100134.42
2023-02-28T17:58:51.760Z,100137.50
2023-02-28T18:01:58.052Z,100141.27
2023-02-28T18:05:05.262Z,100138.91
2023-02-28T18:08:14.126Z,100141.43
2023-02-28T18:11:20.530Z,100138.30
2023-02-28T18:14:26.487Z,100137.13
2023-02-28T18:17:32.797Z,100140.56
2023-02-28T18:20:37.522Z,100144.31
2023-02-28T18:23:48.518Z,100147.27
2023-02-28T18:26:54.842Z,100142.56
2023-02-28T18:30:01.097Z,100146.00
2023-02-28T18:33:07.500Z,100149.84
2023-02-28T18:36:16.330Z,100151.30
2023-02-28T18:39:22.830Z,100147.38
2023-02-28T18:42:29.065Z,100150.54
2023-02-28T18:45:36.291Z,100150.48
2023-02-28T18:48:42.898Z,100146.81
2023-02-28T18:51:49.260Z,100140.59
2023-02-28T18:54:53.799Z,100138.30
2023-02-28T18:58:00.029Z,100137.77
2023-02-28T19:01:15.520Z,100138.15
2023-02-28T19:04:21.807Z,100134.77
2023-02-28T19:07:26.352Z,100132.96
2023-02-28T19:10:32.922Z,100133.82
2023-02-28T19:13:39.331Z,100136.50
2023-02-28T19:16:47.313Z,100140.32
2023-02-28T19:19:53.694Z,100141.95
2023-02-28T19:22:59.878Z,100146.36
2023-02-28T19:26:10.803Z,100145.36
2023-02-28T19:29:17.173Z,100144.30
2023-02-28T19:32:22.101Z,100149.99
2023-02-28T19:35:28.463Z,100151.10
2023-02-28T19:38:33.072Z,100153.00
2023-02-28T19:41:39.332Z,100154.98
2023-02-28T19:44:46.357Z,100159.64
2023-02-28T19:47:52.682Z,100157.30
2023-02-28T19:50:59.689Z,100156.04
2023-02-28T19:54:06.657Z,100155.67
2023-02-28T19:57:12.931Z,100150.27
2023-02-28T20:00:19.072Z,100147.08
2023-02-28T20:03:25.732Z,100146.58
2023-02-28T20:06:34.437Z,100145.27
2023-02-28T20:09:40.650Z,100146.55
2023-02-28T20:12:46.926Z,100141.80
2023-02-28T20:15:51.461Z,100140.33
2023-02-28T20:18:57.953Z,100134.85
2023-02-28T20:22:04.132Z,100135.95
2023-02-28T20:25:12.265Z,100136.11
2023-02-28T20:28:19.195Z,100136.29
2023-02-28T20:31:27.080Z,100133.85
2023-02-28T20:34:33.377Z,100133.83
2023-02-28T20:37:37.874Z,100135.91
2023-02-28T20:40:44.172Z,100136.00
2023-02-28T20:43:48.926Z,100133.59
2023-02-28T20:46:55.085Z,100131.67
2023-02-28T20:50:01.329Z,100131.61
2023-02-28T20:53:05.961Z,100136.98
2023-02-28T20:56:16.193Z,100143.14
2023-02-28T20:59:22.515Z,100142.45
2023-02-28T21:02:26.996Z,100140.50
2023-02-28T21:05:33.230Z,100135.38
2023-02-28T21:08:40.904Z,100134.52
2023-02-28T21:11:47.515Z,100131.38
2023-02-28T21:14:54.248Z,100125.81
2023-02-28T21:18:00.501Z,100127.66
2023-02-28T21:21:08.612Z,100130.70
2023-02-28T21:24:15.695Z,100126.38
2023-02-28T21:27:21.906Z,100122.77
2023-02-28T21:30:28.429Z,100120.46
2023-02-28T21:33:36.002Z,100119.29
2023-02-28T21:36:45.776Z,100119.20
2023-02-28T21:39:52.113Z,100119.77
2023-02-28T21:42:58.413Z,100123.60
2023-02-28T21:46:06.790Z,100121.63
2023-02-28T21:49:13.176Z,100119.33
2023-02-28T21:52:24.992Z,100118.18
2023-02-28T21:55:31.284Z,100117.15
2023-02-28T21:58:35.732Z,100119.10
2023-02-28T22:01:44.234Z,100124.59
2023-02-28T22:04:50.780Z,100130.11
2023-02-28T22:07:57.032Z,100128.77
2023-02-28T22:11:06.767Z,100128.30
2023-02-28T22:14:12.986Z,100125.66
2023-02-28T22:17:19.162Z,100131.30
2023-02-28T22:20:25.428Z,100135.98
2023-02-28T22:23:29.845Z,100136.64
2023-02-28T22:26:36.514Z,100137.75
2023-02-28T22:29:43.049Z,100136.35
2023-02-28T22:32:49.820Z,100140.00
2023-02-28T22:35:56.107Z,100146.60
2023-02-28T22:39:01.553Z,100146.20
2023-02-28T22:42:07.917Z,100145.65
2023-02-28T22:45:14.906Z,100148.38
2023-02-28T22:48:21.479Z,100149.17
2023-02-28T22:51:28.634Z,100146.63
2023-02-28T22:54:34.452Z,100152.02
2023-02-28T22:57:40.897Z,100156.85
2023-02-28T23:00:47.300Z,100157.83
2023-02-28T23:03:54.317Z,100161.42
2023-02-28T23:07:00.715Z,100166.58
2023-02-28T23:10:12.837Z,100174.71
2023-02-28T23:13:20.291Z,100176.41
2023-02-28T23:16:27.849Z,100177.19
2023-02-28T23:19:34.288Z,100180.77
2023-02-28T23:22:40.779Z,100178.13
2023-02-28T23:25:47.301Z,100179.62
2023-02-28T23:28:53.719Z,100181.91
2023-02-28T23:32:00.342Z,100183.02
2023-02-28T23:35:08.660Z,100176.84
2023-02-28T23:38:14.910Z,100173.27
2023-02-28T23:41:20.298Z,100173.45
2023-02-28T23:44:26.736Z,100171.45
2023-02-28T23:47:33.421Z,100168.70
2023-02-28T23:50:40.534Z,100167.51
2023-02-28T23:53:48.823Z,100165.91
2023-02-28T23:56:55.378Z,100169.77
